Time;durP1;ratioP1;P1;durP2;ratioP2;P2;SDS_P1;SDS_P2;PMS_P1;PMS_P2;Temp;Humidity;BMP_temperature;BMP_pressure;BME280_temperature;BME280_humidity;BME280_pressure;Samples;Min_cycle;Max_cycle;Signal;HPM_P1;HPM_P2
2020/12/12 00:00:04;;;;;;;32.75;19.25;;;;;;;4.44;94.07;98264.88;5017268;28;20060;-83
2020/12/12 00:02:35;;;;;;;34.67;19.17;;;;;;;4.50;93.70;98267.16;5021226;28;20457;-84
2020/12/12 00:05:03;;;;;;;34.60;19.45;;;;;;;4.49;93.77;98260.22;5038404;28;20050;-83
2020/12/12 00:07:31;;;;;;;31.45;19.65;;;;;;;4.46;93.81;98259.53;5038008;28;20050;-83
2020/12/12 00:10:02;;;;;;;32.78;19.00;;;;;;;4.47;93.90;98274.34;5036831;28;20041;-84
2020/12/12 00:12:31;;;;;;;32.45;18.70;;;;;;;4.52;93.02;98270.53;5026288;28;20054;-86
2020/12/12 00:14:57;;;;;;;33.88;18.77;;;;;;;4.49;93.52;98270.72;5029623;28;20068;-85
2020/12/12 00:17:24;;;;;;;32.80;19.10;;;;;;;4.55;93.55;98280.00;5023538;28;20064;-84
2020/12/12 00:19:50;;;;;;;31.63;17.85;;;;;;;4.51;93.11;98276.72;5022485;28;20451;-84
2020/12/12 00:22:17;;;;;;;36.03;19.33;;;;;;;4.47;93.10;98271.72;5024873;28;20145;-85
2020/12/12 00:24:46;;;;;;;30.92;18.02;;;;;;;4.45;93.75;98265.72;5025466;28;20050;-84
2020/12/12 00:27:12;;;;;;;33.35;19.15;;;;;;;4.49;93.79;98273.31;5030783;28;20045;-83
2020/12/12 00:29:39;;;;;;;35.92;19.95;;;;;;;4.49;93.64;98278.56;5026025;28;20501;-86
2020/12/12 00:32:05;;;;;;;34.85;19.05;;;;;;;4.45;93.63;98270.94;5025493;28;20048;-86
2020/12/12 00:34:32;;;;;;;31.95;18.63;;;;;;;4.46;93.60;98265.63;5021096;28;20072;-86
2020/12/12 00:36:58;;;;;;;34.42;19.92;;;;;;;4.50;94.27;98268.94;5017823;28;20054;-84
2020/12/12 00:39:25;;;;;;;30.98;19.23;;;;;;;4.53;93.73;98272.22;5025858;28;20037;-85
2020/12/12 00:41:51;;;;;;;35.45;19.58;;;;;;;4.56;93.84;98276.47;5034581;28;20126;-83
2020/12/12 00:44:18;;;;;;;35.50;20.80;;;;;;;4.50;93.43;98277.63;5033426;28;20141;-83
2020/12/12 00:46:44;;;;;;;36.65;20.67;;;;;;;4.50;93.74;98276.78;5027759;28;20116;-84
2020/12/12 00:49:12;;;;;;;36.97;20.77;;;;;;;4.51;93.28;98281.09;5028444;28;20074;-85
2020/12/12 00:51:41;;;;;;;33.22;19.13;;;;;;;4.49;93.47;98285.59;5031121;28;20057;-85
2020/12/12 00:54:09;;;;;;;33.95;20.83;;;;;;;4.49;93.88;98273.31;5020277;28;20050;-87
2020/12/12 00:56:37;;;;;;;35.42;19.58;;;;;;;4.51;93.99;98275.88;5028263;28;20121;-85
2020/12/12 00:59:03;;;;;;;35.58;20.20;;;;;;;4.47;93.20;98274.34;5025893;28;20496;-86
2020/12/12 01:01:30;;;;;;;36.10;20.55;;;;;;;4.42;93.75;98271.97;5035744;28;20034;-86
2020/12/12 01:03:56;;;;;;;34.00;19.48;;;;;;;4.45;93.90;98266.56;5033999;28;20040;-85
2020/12/12 01:06:23;;;;;;;37.15;19.58;;;;;;;4.47;93.97;98271.72;5032454;28;20072;-86
2020/12/12 01:08:49;;;;;;;36.55;20.02;;;;;;;4.44;94.35;98264.88;5030553;28;20547;-85
2020/12/12 01:11:18;;;;;;;36.95;19.77;;;;;;;4.47;93.88;98277.81;5029652;28;20140;-85
2020/12/12 01:13:45;;;;;;;37.25;20.23;;;;;;;4.47;94.19;98272.56;5034670;28;20109;-84
2020/12/12 01:16:15;;;;;;;33.83;18.70;;;;;;;4.46;94.00;98278.72;5033837;28;20068;-85
2020/12/12 01:18:42;;;;;;;32.95;19.27;;;;;;;4.42;94.20;98268.50;5010435;28;20082;-84
2020/12/12 01:21:13;;;;;;;33.45;18.95;;;;;;;4.31;94.67;98256.00;5010241;28;20049;-83
2020/12/12 01:23:41;;;;;;;33.70;18.63;;;;;;;4.44;94.03;98277.97;5016454;28;20081;-85
2020/12/12 01:26:08;;;;;;;33.17;19.73;;;;;;;4.42;94.21;98286.84;5018436;28;20066;-84
2020/12/12 01:28:35;;;;;;;35.13;19.38;;;;;;;4.37;94.28;98283.66;5025659;28;20034;-84
2020/12/12 01:31:01;;;;;;;33.53;19.17;;;;;;;4.32;94.20;98276.03;5030177;28;20072;-84
2020/12/12 01:33:28;;;;;;;32.33;18.98;;;;;;;4.22;94.46;98259.16;5019890;28;20140;-85
2020/12/12 01:35:55;;;;;;;36.28;19.10;;;;;;;4.32;94.21;98276.03;5027569;28;20056;-84
2020/12/12 01:38:23;;;;;;;33.75;19.08;;;;;;;4.43;94.45;98292.00;5034656;28;20062;-84
2020/12/12 01:40:54;;;;;;;35.38;20.33;;;;;;;4.40;94.39;98281.72;5033990;28;20049;-83
2020/12/12 01:43:21;;;;;;;32.88;19.23;;;;;;;4.40;94.74;98283.50;5021984;28;20060;-84
2020/12/12 01:45:48;;;;;;;33.95;19.77;;;;;;;4.41;94.30;98293.00;5018120;28;20092;-84
2020/12/12 01:48:15;;;;;;;33.60;19.25;;;;;;;4.33;94.71;98275.09;5012741;28;20053;-83
2020/12/12 01:50:44;;;;;;;35.95;20.52;;;;;;;4.41;94.43;98288.63;5015747;28;20796;-83
2020/12/12 01:53:14;;;;;;;37.25;20.52;;;;;;;4.43;94.60;98293.78;5013077;28;20046;-85
2020/12/12 01:55:47;;;;;;;33.58;19.23;;;;;;;4.41;94.23;98295.63;5017285;28;20083;-84
2020/12/12 01:58:17;;;;;;;33.30;19.63;;;;;;;4.37;94.42;98281.88;5002962;28;20038;-84
2020/12/12 02:00:43;;;;;;;33.58;19.98;;;;;;;4.37;94.28;98288.88;5017679;28;20054;-85
2020/12/12 02:03:11;;;;;;;33.22;19.20;;;;;;;4.40;94.83;98292.19;5283747;23;20469;-79
2020/12/12 02:05:42;;;;;;;35.50;20.02;;;;;;;4.43;94.71;98293.78;5012366;28;20056;-78
2020/12/12 02:08:17;;;;;;;31.58;18.30;;;;;;;4.45;94.94;98295.38;5013412;28;20050;-75
2020/12/12 02:10:48;;;;;;;34.80;19.60;;;;;;;4.43;94.57;98293.78;5004478;28;20053;-76
2020/12/12 02:13:16;;;;;;;33.58;18.98;;;;;;;4.46;94.78;98298.84;5001870;28;21024;-78
2020/12/12 02:15:43;;;;;;;36.03;19.77;;;;;;;4.49;95.07;98296.06;5000175;28;20042;-80
2020/12/12 02:18:21;;;;;;;38.83;21.00;;;;;;;4.49;95.19;98296.91;5002340;28;20096;-78
2020/12/12 02:20:52;;;;;;;33.30;19.00;;;;;;;4.46;95.22;98294.47;5015221;28;20129;-77
2020/12/12 02:23:20;;;;;;;33.30;18.67;;;;;;;4.46;94.45;98302.31;5005770;28;20056;-79
2020/12/12 02:25:47;;;;;;;34.28;20.13;;;;;;;4.47;94.48;98300.53;5009957;28;20052;-74
2020/12/12 02:28:17;;;;;;;35.88;21.25;;;;;;;4.47;94.96;98288.28;5002403;28;20064;-78
2020/12/12 02:30:43;;;;;;;33.00;19.27;;;;;;;4.48;94.36;98292.59;5008830;28;20065;-77
2020/12/12 02:33:10;;;;;;;37.28;20.50;;;;;;;4.49;94.63;98294.28;4998527;28;20050;-78
2020/12/12 02:35:37;;;;;;;39.42;20.85;;;;;;;4.48;94.45;98300.47;5008114;28;20046;-77
2020/12/12 02:38:04;;;;;;;38.28;21.27;;;;;;;4.46;94.48;98294.47;5008639;28;20052;-80
2020/12/12 02:40:30;;;;;;;36.20;20.58;;;;;;;4.40;94.71;98286.09;5011484;28;20042;-76
2020/12/12 02:42:57;;;;;;;40.88;21.02;;;;;;;4.41;94.42;98280.75;5023302;28;20113;-77
2020/12/12 02:45:23;;;;;;;36.85;20.40;;;;;;;4.39;94.42;98293.13;5006793;28;20050;-77
2020/12/12 02:47:49;;;;;;;38.30;20.42;;;;;;;4.38;94.56;98294.06;5008347;28;20060;-80
2020/12/12 02:50:25;;;;;;;35.95;19.98;;;;;;;4.36;94.58;98284.59;5007992;28;20197;-77
2020/12/12 02:52:52;;;;;;;37.80;21.35;;;;;;;4.44;94.53;98283.22;5007504;28;20136;-75
2020/12/12 02:55:19;;;;;;;36.60;19.08;;;;;;;4.42;94.42;98289.47;5005208;28;20438;-80
2020/12/12 02:57:46;;;;;;;37.50;21.08;;;;;;;4.43;94.69;98289.38;5002981;28;20053;-77
2020/12/12 03:00:16;;;;;;;35.72;20.23;;;;;;;4.40;94.63;98281.72;5006090;28;20090;-77
2020/12/12 03:02:43;;;;;;;36.10;20.40;;;;;;;4.45;94.71;98284.06;5012695;28;20132;-77
2020/12/12 03:05:09;;;;;;;36.67;20.80;;;;;;;4.45;94.37;98294.53;5003194;28;20048;-77
2020/12/12 03:07:36;;;;;;;38.20;21.25;;;;;;;4.45;94.19;98292.75;5007294;28;20060;-76
2020/12/12 03:10:05;;;;;;;36.38;20.13;;;;;;;4.45;94.45;98292.75;5006558;28;20046;-77
2020/12/12 03:12:35;;;;;;;38.72;21.05;;;;;;;4.48;94.37;98289.97;5007272;28;20541;-75
2020/12/12 03:15:12;;;;;;;35.58;19.88;;;;;;;4.47;94.82;98284.81;5012924;28;20046;-76
2020/12/12 03:17:38;;;;;;;36.38;20.90;;;;;;;4.50;94.61;98295.13;4995524;28;20561;-76
2020/12/12 03:20:06;;;;;;;40.60;22.17;;;;;;;4.44;93.98;98291.06;5009194;28;20547;-79
2020/12/12 03:22:34;;;;;;;37.30;20.65;;;;;;;4.42;94.57;98298.16;5009179;28;20058;-76
2020/12/12 03:25:02;;;;;;;36.35;20.35;;;;;;;4.43;94.10;98296.41;5014609;28;20119;-77
2020/12/12 03:27:28;;;;;;;37.60;20.85;;;;;;;4.43;94.32;98292.00;5014772;28;20056;-78
2020/12/12 03:29:54;;;;;;;38.97;21.10;;;;;;;4.43;94.08;98297.25;5009662;28;20046;-77
2020/12/12 03:32:31;;;;;;;40.83;22.20;;;;;;;4.43;94.47;98288.53;5008564;28;20042;-78
2020/12/12 03:34:58;;;;;;;38.30;21.38;;;;;;;4.43;94.42;98293.78;5014028;28;20061;-76
2020/12/12 03:37:24;;;;;;;38.03;21.10;;;;;;;4.41;94.64;98299.09;5000655;28;20086;-81
2020/12/12 03:39:51;;;;;;;40.00;22.20;;;;;;;4.40;94.26;98304.44;4999085;28;20172;-79
2020/12/12 03:42:17;;;;;;;37.72;22.48;;;;;;;4.38;94.38;98304.53;5009783;28;20128;-77
2020/12/12 03:44:44;;;;;;;37.55;21.80;;;;;;;4.37;94.47;98302.84;5006547;28;20052;-75
2020/12/12 03:47:10;;;;;;;40.65;22.60;;;;;;;4.37;94.75;98305.47;5006798;28;20080;-75
2020/12/12 03:49:37;;;;;;;41.08;21.70;;;;;;;4.38;95.08;98306.31;5008715;28;20473;-76
2020/12/12 03:52:03;;;;;;;39.22;20.75;;;;;;;4.36;94.35;98301.16;5012343;28;20416;-82
2020/12/12 03:54:30;;;;;;;39.88;22.35;;;;;;;4.39;95.23;98306.22;5008509;28;20084;-77
2020/12/12 03:56:56;;;;;;;39.50;22.95;;;;;;;4.38;95.11;98303.69;5006260;28;20424;-77
2020/12/12 03:59:23;;;;;;;41.40;22.15;;;;;;;4.40;94.77;98307.06;5005199;28;20050;-75
2020/12/12 04:01:49;;;;;;;37.95;21.65;;;;;;;4.36;94.75;98298.53;5003837;28;20453;-76
2020/12/12 04:04:16;;;;;;;45.40;24.02;;;;;;;4.34;94.85;98305.63;5015390;28;20050;-79
2020/12/12 04:06:42;;;;;;;41.28;22.95;;;;;;;4.33;94.70;98305.69;5004786;28;20058;-77
2020/12/12 04:09:09;;;;;;;41.88;22.45;;;;;;;4.33;94.81;98297.84;5008189;28;20049;-77
2020/12/12 04:11:35;;;;;;;44.72;22.85;;;;;;;4.30;95.23;98298.84;5009604;28;20050;-77
2020/12/12 04:14:02;;;;;;;44.08;23.52;;;;;;;4.33;95.00;98300.47;5008824;28;20053;-75
2020/12/12 04:16:29;;;;;;;45.65;23.10;;;;;;;4.35;95.41;98299.44;5012644;28;20152;-75
2020/12/12 04:18:56;;;;;;;40.50;22.83;;;;;;;4.38;95.61;98309.78;5008196;28;20050;-76
2020/12/12 04:21:24;;;;;;;41.85;23.13;;;;;;;4.39;95.03;98305.38;5012740;28;20076;-77
2020/12/12 04:23:51;;;;;;;41.78;22.98;;;;;;;4.38;95.39;98307.16;5001676;28;20046;-77
2020/12/12 04:26:17;;;;;;;39.55;22.08;;;;;;;4.39;95.05;98311.47;5004295;28;20073;-77
2020/12/12 04:28:43;;;;;;;42.97;23.80;;;;;;;4.38;95.41;98309.78;5010241;28;20054;-77
2020/12/12 04:31:11;;;;;;;40.35;22.88;;;;;;;4.39;94.70;98308.84;5004757;28;20128;-77
2020/12/12 04:33:37;;;;;;;42.13;22.77;;;;;;;4.39;94.73;98305.38;5010483;28;20119;-76
2020/12/12 04:36:04;;;;;;;43.13;22.95;;;;;;;4.40;95.02;98310.53;5011923;28;20049;-76
2020/12/12 04:38:32;;;;;;;41.47;22.92;;;;;;;4.38;94.78;98312.41;5004111;28;20058;-76
2020/12/12 04:41:09;;;;;;;42.35;23.90;;;;;;;4.38;95.01;98312.41;5010932;28;20637;-76
2020/12/12 04:43:39;;;;;;;40.28;23.05;;;;;;;4.42;94.79;98318.28;5011420;28;20050;-76
2020/12/12 04:46:07;;;;;;;40.95;24.00;;;;;;;4.42;94.63;98315.66;4998702;28;20048;-75
2020/12/12 04:48:34;;;;;;;44.20;23.42;;;;;;;4.42;95.11;98313.03;4995522;28;20053;-77
2020/12/12 04:51:01;;;;;;;46.08;25.13;;;;;;;4.41;94.66;98312.19;5012564;28;20046;-74
2020/12/12 04:53:27;;;;;;;43.63;23.67;;;;;;;4.40;94.79;98326.25;5013697;28;20054;-84
2020/12/12 04:55:54;;;;;;;42.00;23.00;;;;;;;4.42;94.97;98326.16;5026364;28;20057;-79
2020/12/12 04:58:23;;;;;;;44.78;23.52;;;;;;;4.43;95.11;98323.44;5036205;28;20101;-81
2020/12/12 05:00:51;;;;;;;40.67;22.55;;;;;;;4.41;94.67;98330.53;5031050;28;20030;-81
2020/12/12 05:03:20;;;;;;;40.50;22.17;;;;;;;4.40;95.15;98321.03;5016238;28;20145;-77
2020/12/12 05:05:47;;;;;;;38.67;22.38;;;;;;;4.44;94.61;98330.38;5019912;28;20046;-77
2020/12/12 05:08:15;;;;;;;42.95;23.42;;;;;;;4.48;94.95;98331.06;5008732;28;20045;-77
2020/12/12 05:10:50;;;;;;;42.83;23.33;;;;;;;4.44;94.79;98322.53;5024595;28;20033;-81
2020/12/12 05:13:33;;;;;;;39.58;22.77;;;;;;;4.43;94.64;98331.31;5029528;28;20113;-77
2020/12/12 05:16:00;;;;;;;42.05;23.10;;;;;;;4.42;94.57;98332.22;5031359;28;20068;-78
2020/12/12 05:18:27;;;;;;;40.95;22.77;;;;;;;4.45;94.37;98332.06;5025177;28;20054;-77
2020/12/12 05:20:54;;;;;;;41.67;23.10;;;;;;;4.46;94.17;98336.38;5019028;28;20057;-77
2020/12/12 05:23:22;;;;;;;41.78;22.10;;;;;;;4.50;94.66;98335.28;5008496;28;20117;-77
2020/12/12 05:25:52;;;;;;;41.22;22.75;;;;;;;4.54;94.11;98335.97;5015642;28;20046;-76
2020/12/12 05:28:21;;;;;;;38.70;22.13;;;;;;;4.55;93.66;98340.28;5010985;28;20056;-77
2020/12/12 05:30:49;;;;;;;36.17;20.83;;;;;;;4.55;93.62;98345.53;5015672;28;20129;-77
2020/12/12 05:33:22;;;;;;;40.30;22.25;;;;;;;4.52;93.28;98343.09;5005387;28;20056;-76
2020/12/12 05:35:49;;;;;;;39.65;22.60;;;;;;;4.52;92.91;98343.09;5011873;28;20072;-77
2020/12/12 05:38:16;;;;;;;39.83;21.45;;;;;;;4.56;93.43;98348.03;5016425;28;20481;-75
2020/12/12 05:40:48;;;;;;;44.30;22.40;;;;;;;4.58;92.97;98345.34;5014935;28;20420;-76
2020/12/12 05:43:15;;;;;;;39.85;21.67;;;;;;;4.59;92.94;98347.03;5017304;28;20052;-78
2020/12/12 05:45:42;;;;;;;40.20;22.45;;;;;;;4.52;93.00;98346.53;5017712;28;20049;-79
2020/12/12 05:48:10;;;;;;;38.58;21.73;;;;;;;4.50;93.35;98347.56;5019776;28;20042;-77
2020/12/12 05:50:36;;;;;;;39.20;22.05;;;;;;;4.50;92.68;98343.16;5024966;28;20041;-78
2020/12/12 05:53:05;;;;;;;37.95;21.98;;;;;;;4.51;93.61;98350.09;5020186;28;20053;-77
2020/12/12 05:55:34;;;;;;;42.35;24.02;;;;;;;4.52;93.64;98357.03;5012981;28;20404;-78
2020/12/12 05:58:02;;;;;;;40.78;21.88;;;;;;;4.54;93.34;98360.41;5008638;28;20542;-76
2020/12/12 06:00:30;;;;;;;40.15;23.00;;;;;;;4.53;93.24;98356.09;5010216;28;20054;-76
2020/12/12 06:03:20;;;;;;;39.40;21.98;;;;;;;4.55;93.80;98362.09;5013276;28;20116;-80
2020/12/12 06:05:48;;;;;;;;;;;;;;;4.57;93.17;98365.47;4991322;28;20049;-77
2020/12/12 06:08:27;;;;;;;41.38;22.25;;;;;;;4.59;92.75;98363.59;5008016;28;19921;-77
2020/12/12 06:11:00;;;;;;;38.58;21.45;;;;;;;4.57;92.87;98367.25;5008822;28;20053;-76
2020/12/12 06:13:32;;;;;;;42.33;22.80;;;;;;;4.57;93.08;98360.22;5015624;28;20050;-79
2020/12/12 06:16:02;;;;;;;44.60;22.45;;;;;;;4.59;93.23;98368.84;5011087;28;20481;-80
2020/12/12 06:18:55;;;;;;;40.58;23.00;;;;;;;4.59;93.07;98366.22;5009606;28;20096;-75
2020/12/12 06:21:25;;;;;;;42.65;23.80;;;;;;;4.54;93.18;98373.53;4998334;28;20046;-76
2020/12/12 06:23:53;;;;;;;45.67;23.83;;;;;;;4.53;92.74;98376.22;5016751;28;20144;-77
2020/12/12 06:26:31;;;;;;;45.67;23.67;;;;;;;4.54;93.24;98381.38;5016777;28;20050;-78
2020/12/12 06:28:59;;;;;;;45.35;25.25;;;;;;;4.53;93.18;98384.94;5029438;28;20046;-82
2020/12/12 06:31:28;;;;;;;41.35;22.83;;;;;;;4.51;93.58;98378.06;5028260;28;20057;-78
2020/12/12 06:33:55;;;;;;;41.47;23.40;;;;;;;4.54;93.35;98377.91;5017610;28;20053;-76
2020/12/12 06:36:32;;;;;;;44.10;23.45;;;;;;;4.57;92.73;98382.97;5014537;28;20053;-77
2020/12/12 06:39:16;;;;;;;41.35;23.95;;;;;;;4.54;93.05;98380.53;4998396;28;20058;-76
2020/12/12 06:41:43;;;;;;;41.38;22.83;;;;;;;4.55;93.13;98388.31;5006867;28;20042;-80
2020/12/12 06:44:09;;;;;;;41.03;22.55;;;;;;;4.57;92.98;98399.53;5006195;28;20045;-75
2020/12/12 06:47:06;;;;;;;40.65;23.02;;;;;;;4.58;92.19;98396.00;5000924;28;20058;-77
2020/12/12 06:49:34;;;;;;;44.67;24.05;;;;;;;4.55;92.25;98395.34;4995199;28;20140;-79
2020/12/12 06:52:00;;;;;;;42.55;23.77;;;;;;;4.54;92.82;98399.72;5001769;28;20053;-77
2020/12/12 06:54:27;;;;;;;39.80;22.63;;;;;;;4.51;92.46;98399.91;4998963;28;20107;-77
2020/12/12 06:56:54;;;;;;;44.65;25.10;;;;;;;4.51;92.51;98409.53;4993643;28;20051;-77
2020/12/12 06:59:30;;;;;;;41.20;22.73;;;;;;;4.51;93.13;98414.78;4999697;28;20061;-74
2020/12/12 07:02:06;;;;;;;41.58;23.20;;;;;;;4.53;93.29;98408.53;5015515;28;20068;-76
2020/12/12 07:04:35;;;;;;;41.75;22.83;;;;;;;4.54;92.29;98412.84;5021386;28;20583;-75
2020/12/12 07:07:05;;;;;;;38.13;21.90;;;;;;;4.54;92.50;98418.09;5011813;28;20054;-78
2020/12/12 07:09:35;;;;;;;40.28;22.60;;;;;;;4.55;92.54;98417.16;5002673;28;20045;-78
2020/12/12 07:12:02;;;;;;;37.88;21.80;;;;;;;4.61;92.14;98428.22;5018030;28;20042;-77
2020/12/12 07:14:29;;;;;;;39.35;22.45;;;;;;;4.61;92.62;98425.59;5009751;28;20054;-75
2020/12/12 07:17:00;;;;;;;39.60;22.23;;;;;;;4.64;92.27;98435.91;4999369;28;20054;-80
2020/12/12 07:19:38;;;;;;;41.55;21.95;;;;;;;4.62;91.84;98435.16;4991999;28;20121;-75
2020/12/12 07:22:10;;;;;;;41.03;23.15;;;;;;;4.64;91.73;98433.31;5008769;28;20045;-78
2020/12/12 07:24:41;;;;;;;40.55;22.02;;;;;;;4.65;91.76;98437.63;5001331;28;20046;-75
2020/12/12 07:27:08;;;;;;;37.55;21.25;;;;;;;4.64;91.67;98430.69;4997155;28;20049;-76
2020/12/12 07:29:34;;;;;;;39.45;21.55;;;;;;;4.62;91.96;98443.00;5015021;28;20054;-81
2020/12/12 07:32:01;;;;;;;35.47;21.17;;;;;;;4.63;92.02;98440.31;5002056;28;20140;-77
2020/12/12 07:34:28;;;;;;;37.67;21.73;;;;;;;4.64;91.96;98449.03;5005798;28;20050;-80
2020/12/12 07:37:09;;;;;;;33.88;20.30;;;;;;;4.66;91.77;98449.78;4998427;28;20976;-80
2020/12/12 07:39:42;;;;;;;39.15;22.40;;;;;;;4.64;91.88;98449.03;4993335;28;20050;-76
2020/12/12 07:42:10;;;;;;;35.45;21.58;;;;;;;4.66;91.75;98460.28;5001580;28;20413;-76
2020/12/12 07:44:39;;;;;;;36.35;20.85;;;;;;;4.66;91.43;98457.66;4996657;28;20137;-76
2020/12/12 07:47:08;;;;;;;33.47;20.38;;;;;;;4.69;91.58;98470.63;5010797;28;20050;-82
2020/12/12 07:49:36;;;;;;;32.78;19.45;;;;;;;4.70;91.14;98465.28;4999464;28;20046;-77
2020/12/12 07:52:11;;;;;;;36.50;20.90;;;;;;;4.73;91.69;98478.22;5007914;28;20476;-77
2020/12/12 07:54:56;;;;;;;34.90;20.17;;;;;;;4.69;91.68;98470.63;4999659;28;20145;-78
2020/12/12 07:57:22;;;;;;;32.15;19.13;;;;;;;4.70;91.49;98474.94;5008575;28;20060;-77
2020/12/12 07:59:49;;;;;;;36.50;20.35;;;;;;;4.69;91.86;98478.47;5007486;28;20124;-77
2020/12/12 08:02:16;;;;;;;32.65;19.33;;;;;;;4.67;92.01;98478.56;5005507;28;20046;-81
2020/12/12 08:04:42;;;;;;;34.33;20.52;;;;;;;4.74;92.23;98479.06;5001608;28;20042;-77
2020/12/12 08:07:25;;;;;;;34.38;19.40;;;;;;;4.78;92.11;98483.22;5005886;28;20042;-78
2020/12/12 08:09:52;;;;;;;32.95;19.95;;;;;;;4.78;92.16;98486.69;5013021;28;20052;-77
2020/12/12 08:12:33;;;;;;;32.20;19.40;;;;;;;4.77;91.97;98489.38;5006482;28;20789;-77
2020/12/12 08:15:01;;;;;;;;;;;;;;;4.81;92.29;98501.41;5014042;28;20132;-77
2020/12/12 08:17:31;;;;;;;33.78;19.55;;;;;;;4.79;91.78;98498.03;5014615;28;20458;-77
2020/12/12 08:19:58;;;;;;;32.10;19.25;;;;;;;4.80;91.70;98499.72;5008627;28;20049;-78
2020/12/12 08:22:29;;;;;;;37.47;20.73;;;;;;;4.79;92.10;98503.25;5013924;28;20061;-76
2020/12/12 08:25:01;;;;;;;37.17;21.30;;;;;;;4.73;91.84;98506.19;5010405;28;20050;-77
2020/12/12 08:27:31;;;;;;;32.85;19.52;;;;;;;4.69;92.15;98504.69;5001888;28;20057;-79
2020/12/12 08:30:00;;;;;;;33.92;20.27;;;;;;;4.74;92.22;98505.28;5003472;28;20057;-77
2020/12/12 08:32:46;;;;;;;33.85;19.85;;;;;;;4.82;91.67;98516.22;4998001;28;20046;-77
2020/12/12 08:35:15;;;;;;;32.78;19.23;;;;;;;4.83;92.01;98526.63;5010529;28;20082;-82
2020/12/12 08:38:04;;;;;;;35.28;20.63;;;;;;;4.85;92.27;98529.16;4999526;28;20054;-78
2020/12/12 08:40:42;;;;;;;33.15;19.52;;;;;;;4.86;91.90;98531.72;5015885;28;20062;-79
2020/12/12 08:43:11;;;;;;;35.97;20.50;;;;;;;4.84;92.17;98527.47;5017930;28;20050;-78
2020/12/12 08:45:41;;;;;;;33.75;19.92;;;;;;;4.96;91.65;98546.94;5010150;28;20195;-78
2020/12/12 08:48:12;;;;;;;31.25;19.23;;;;;;;4.97;91.92;98553.88;5004130;28;20060;-77
2020/12/12 08:50:54;;;;;;;33.15;19.85;;;;;;;4.97;91.80;98549.50;5011945;28;20416;-78
2020/12/12 08:53:26;;;;;;;35.30;20.40;;;;;;;4.95;91.02;98551.34;5010399;28;20045;-76
2020/12/12 08:56:20;;;;;;;33.33;19.80;;;;;;;4.92;91.43;98557.59;5009171;28;20058;-77
2020/12/12 08:58:55;;;;;;;33.80;20.58;;;;;;;4.93;91.67;98564.53;5006646;28;20054;-78
2020/12/12 09:01:35;;;;;;;36.63;21.55;;;;;;;4.93;91.74;98566.31;5001438;28;20060;-77
2020/12/12 09:04:07;;;;;;;35.08;20.67;;;;;;;4.93;91.36;98571.56;5005491;28;20053;-78
2020/12/12 09:06:58;;;;;;;34.88;21.45;;;;;;;4.93;91.78;98569.78;5013172;28;20089;-78
2020/12/12 09:09:26;;;;;;;33.00;20.75;;;;;;;4.97;90.96;98573.09;5007865;28;20187;-77
2020/12/12 09:12:08;;;;;;;35.58;20.95;;;;;;;4.95;91.04;98574.94;5014899;28;20132;-77
2020/12/12 09:14:42;;;;;;;33.88;20.58;;;;;;;4.89;91.13;98562.16;5014388;28;20046;-76
2020/12/12 09:17:13;;;;;;;35.85;22.23;;;;;;;4.90;91.14;98569.94;5007713;28;20049;-77
2020/12/12 09:19:42;;;;;;;37.40;21.52;;;;;;;4.96;91.01;98579.28;5011614;28;20054;-78
2020/12/12 09:22:10;;;;;;;34.97;21.02;;;;;;;4.94;90.45;98581.97;5011362;28;20459;-79
2020/12/12 09:24:36;;;;;;;34.25;21.77;;;;;;;4.97;90.22;98578.34;5009511;28;20484;-77
2020/12/12 09:27:03;;;;;;;34.72;20.58;;;;;;;5.07;91.02;98594.44;5017874;28;20049;-77
2020/12/12 09:29:30;;;;;;;34.60;21.48;;;;;;;5.06;90.44;98596.19;5012111;28;20890;-79
2020/12/12 09:31:57;;;;;;;32.42;20.15;;;;;;;5.09;90.41;98600.44;5011727;28;20050;-78
2020/12/12 09:34:24;;;;;;;34.90;21.55;;;;;;;5.09;90.86;98595.19;5003090;28;20133;-77
2020/12/12 09:36:52;;;;;;;39.70;21.98;;;;;;;5.10;90.76;98608.25;5012715;28;20038;-79
2020/12/12 09:39:20;;;;;;;40.17;23.00;;;;;;;5.11;90.08;98609.09;5018054;28;20061;-77
2020/12/12 09:41:46;;;;;;;34.30;21.42;;;;;;;5.12;89.54;98606.38;5027249;28;20060;-76
2020/12/12 09:44:13;;;;;;;35.25;21.55;;;;;;;5.14;89.41;98607.16;5010652;28;20049;-76
2020/12/12 09:46:39;;;;;;;33.67;20.88;;;;;;;5.12;88.96;98613.41;5011893;28;20044;-79
2020/12/12 09:49:07;;;;;;;34.97;21.70;;;;;;;5.13;89.22;98609.84;5012554;28;20046;-76
2020/12/12 09:51:33;;;;;;;36.92;21.90;;;;;;;5.14;89.53;98614.19;5010408;28;20423;-77
2020/12/12 09:54:03;;;;;;;34.17;22.08;;;;;;;5.19;89.41;98612.16;5012626;28;20126;-79
2020/12/12 09:56:29;;;;;;;33.88;21.10;;;;;;;5.20;89.09;98619.94;5006848;28;20267;-76
2020/12/12 09:58:58;;;;;;;36.35;21.67;;;;;;;5.19;89.08;98620.03;5022130;28;20042;-80
2020/12/12 10:01:28;;;;;;;33.28;20.45;;;;;;;5.26;89.71;98631.88;5013809;28;20052;-78
2020/12/12 10:03:56;;;;;;;32.80;20.90;;;;;;;5.22;89.56;98622.47;5017138;28;20649;-76
2020/12/12 10:06:23;;;;;;;34.85;21.30;;;;;;;5.32;89.09;98633.34;5014747;28;20154;-77
2020/12/12 10:08:50;;;;;;;34.83;21.55;;;;;;;5.35;89.93;98630.56;5006813;28;20500;-76
2020/12/12 10:11:16;;;;;;;36.33;21.40;;;;;;;5.38;89.45;98628.59;5007924;28;20358;-79
2020/12/12 10:13:43;;;;;;;35.88;21.38;;;;;;;5.50;90.41;98630.56;5012618;28;20054;-79
2020/12/12 10:16:09;;;;;;;35.47;22.23;;;;;;;5.60;89.82;98638.78;5003737;28;20125;-77
2020/12/12 10:18:36;;;;;;;35.63;21.92;;;;;;;5.63;89.10;98638.63;5025808;28;20053;-80
2020/12/12 10:21:02;;;;;;;32.65;20.65;;;;;;;5.64;88.31;98635.91;5032521;28;20049;-78
2020/12/12 10:23:29;;;;;;;32.55;21.42;;;;;;;5.61;87.50;98643.13;5021234;28;20089;-77
2020/12/12 10:25:55;;;;;;;36.63;21.25;;;;;;;5.63;88.09;98639.47;5022005;28;20121;-76
2020/12/12 10:28:22;;;;;;;35.65;21.38;;;;;;;5.63;88.17;98631.59;5015814;28;20062;-77
2020/12/12 10:30:49;;;;;;;35.88;21.98;;;;;;;5.63;87.52;98636.00;4999972;28;20050;-76
2020/12/12 10:33:15;;;;;;;33.63;20.65;;;;;;;5.56;87.34;98637.25;5008722;28;20042;-78
2020/12/12 10:35:41;;;;;;;32.30;20.15;;;;;;;5.57;87.44;98633.69;5007772;28;20145;-78
2020/12/12 10:38:10;;;;;;;41.83;24.08;;;;;;;5.57;87.76;98641.56;5011129;28;20106;-80
2020/12/12 10:43:32;;;;;;;38.25;21.80;;;;;;;5.58;88.24;98643.28;4989249;28;20077;-78
2020/12/12 10:46:02;;;;;;;36.92;22.10;;;;;;;5.58;87.73;98646.75;5013985;28;20058;-77
2020/12/12 10:48:28;;;;;;;38.47;21.90;;;;;;;5.62;88.28;98653.53;4996692;28;20061;-79
2020/12/12 10:50:55;;;;;;;40.85;22.77;;;;;;;5.67;87.88;98655.06;5003347;28;20049;-78
2020/12/12 10:53:21;;;;;;;36.33;22.00;;;;;;;5.59;87.92;98647.59;5005849;28;20795;-78
2020/12/12 10:55:47;;;;;;;38.20;23.23;;;;;;;5.60;88.19;98646.66;5006044;28;20129;-77
2020/12/12 10:58:14;;;;;;;35.42;22.52;;;;;;;5.60;88.21;98658.00;5001595;28;20049;-77
2020/12/12 11:00:44;;;;;;;35.35;21.45;;;;;;;5.59;88.37;98652.84;5006519;28;20050;-79
2020/12/12 11:03:11;;;;;;;37.22;22.42;;;;;;;5.56;88.05;98647.75;5011683;28;20407;-80
2020/12/12 11:05:37;;;;;;;35.60;21.30;;;;;;;5.55;88.08;98654.78;5011180;28;20104;-77
2020/12/12 11:08:04;;;;;;;37.15;22.05;;;;;;;5.59;88.61;98651.06;5003294;28;20480;-77
2020/12/12 11:10:31;;;;;;;35.28;22.67;;;;;;;5.62;88.55;98653.53;5010823;28;20137;-78
2020/12/12 11:12:57;;;;;;;39.35;24.67;;;;;;;5.71;88.81;98657.41;5001338;28;20053;-77
2020/12/12 11:15:23;;;;;;;51.92;24.63;;;;;;;5.75;88.99;98658.97;5002625;28;22560;-77
2020/12/12 11:17:51;;;;;;;34.58;21.92;;;;;;;5.74;88.43;98652.00;5000406;28;20046;-77
2020/12/12 11:20:18;;;;;;;40.75;22.95;;;;;;;5.77;88.51;98653.63;5008944;28;20057;-77
2020/12/12 11:22:45;;;;;;;37.47;22.60;;;;;;;5.69;87.24;98661.91;5002830;28;20133;-78
2020/12/12 11:25:11;;;;;;;38.88;22.13;;;;;;;5.57;86.97;98647.69;4995194;28;20101;-77
2020/12/12 11:27:39;;;;;;;38.53;22.60;;;;;;;5.57;87.23;98666.06;5011700;28;20050;-78
2020/12/12 11:30:12;;;;;;;39.03;21.60;;;;;;;5.54;87.19;98665.38;5024486;28;20494;-80
2020/12/12 11:32:40;;;;;;;67.50;37.47;;;;;;;5.63;88.26;98668.34;5025708;28;20084;-78
2020/12/12 11:40:31;;;;;;;33.53;20.50;;;;;;;5.69;86.77;98674.19;5019585;28;20072;-78
2020/12/12 11:48:12;;;;;;;38.65;20.92;;;;;;;5.72;87.15;98682.75;5016204;28;20054;-77